Moravia, Iowa
Current Conditions -  °F | °C
As of 2:55 AM on Monday 20 Oct 2014 (Local Time) from KTVK Reporting Station
Clear Clear  
Wind Chill: 52°   Ceiling: Unl
Heat Index: 52°   Visibility: 10mi
Dew Point: 48°   Wind: 8mph
Humidity: 88%   Direction: 240°WSW
Pressure: 29.94"   Gusts: NA
Location:  40.89°N, 92.82°W
Report Text: KTVK 200755Z AUTO 24007KT 10SM CLR 11/09 A2994 RMK AO2
Loading
Personal Weather Stations






























Interactive Weather Map
Tropical Storm Tracking
New forecast layout! Learn more

10-Day Weather Forecast

Advertisements
Track Severe Weather on mobile